Archival Weather

Tokyo Intl

Tokyo, Japan (RJTT)

Report from: Saturday, March 18, 2023 11:30 AM JST
Current time: Tuesday, July 16, 2024 7:18 PM JST

Current weather – Weather history – Daily summaries
Weather forecast

Present weatherLight rain
Temperature10.0°C (50.0°F)
Wind chill7.4°C (45.2°F)
Dew point9.0°C (48.2°F)
Winds 11 kts (5.7 m/s, 12.7 mph) North (10°)
Visibility6.2 mi. (10 km)
Clouds Few clouds 500 ft. (152 m)
Ceiling: Broken clouds 800 ft. (244 m)
Broken clouds 2,000 ft. (610 m)
Altimeter29.88 in.Hg (1012 mB)
Relative humidity94 %
Density altitude-392 ft. (-120 m)
Remarks No significant changes expected in the next two hours
Flight conditions Instrument Meteorological Conditions
Raw dataRJTT 180230Z 01011KT 9999 -RA FEW005 BKN008 BKN020 10/09 Q1012 NOSIG RMK 1ST005 5ST008 7SC020 A2990
An error has occurred. This application may no longer respond until reloaded. Reload 🗙